sensor_id;sensor_type;location;lat;lon;timestamp;P1;durP1;ratioP1;P2;durP2;ratioP2
22080;SDS011;11207;59.512;18.050;2023-01-04T00:00:07;6.17;;;5.33;;
22080;SDS011;11207;59.512;18.050;2023-01-04T00:02:33;5.93;;;5.53;;
22080;SDS011;11207;59.512;18.050;2023-01-04T00:04:59;5.63;;;5.23;;
22080;SDS011;11207;59.512;18.050;2023-01-04T00:07:25;5.83;;;5.33;;
22080;SDS011;11207;59.512;18.050;2023-01-04T00:09:52;9.27;;;5.43;;
22080;SDS011;11207;59.512;18.050;2023-01-04T00:12:19;5.87;;;5.37;;
22080;SDS011;11207;59.512;18.050;2023-01-04T00:14:45;5.33;;;4.83;;
22080;SDS011;11207;59.512;18.050;2023-01-04T00:17:10;5.43;;;5.03;;
22080;SDS011;11207;59.512;18.050;2023-01-04T00:19:36;6.23;;;5.67;;
22080;SDS011;11207;59.512;18.050;2023-01-04T00:22:02;6.77;;;6.07;;
22080;SDS011;11207;59.512;18.050;2023-01-04T00:24:27;5.07;;;4.77;;
22080;SDS011;11207;59.512;18.050;2023-01-04T00:26:53;5.60;;;5.10;;
22080;SDS011;11207;59.512;18.050;2023-01-04T00:29:18;5.90;;;5.40;;
22080;SDS011;11207;59.512;18.050;2023-01-04T00:31:44;5.90;;;5.40;;
22080;SDS011;11207;59.512;18.050;2023-01-04T00:34:11;6.30;;;5.10;;
22080;SDS011;11207;59.512;18.050;2023-01-04T00:36:39;6.83;;;5.20;;
22080;SDS011;11207;59.512;18.050;2023-01-04T00:39:05;6.33;;;5.70;;
22080;SDS011;11207;59.512;18.050;2023-01-04T00:41:38;6.00;;;5.50;;
22080;SDS011;11207;59.512;18.050;2023-01-04T00:44:10;5.73;;;5.30;;
22080;SDS011;11207;59.512;18.050;2023-01-04T00:46:38;5.43;;;4.93;;
22080;SDS011;11207;59.512;18.050;2023-01-04T00:49:04;5.20;;;4.80;;
22080;SDS011;11207;59.512;18.050;2023-01-04T00:51:31;6.03;;;5.47;;
22080;SDS011;11207;59.512;18.050;2023-01-04T00:54:02;5.17;;;4.77;;
22080;SDS011;11207;59.512;18.050;2023-01-04T00:56:29;6.00;;;5.50;;
22080;SDS011;11207;59.512;18.050;2023-01-04T00:58:55;6.17;;;5.33;;
22080;SDS011;11207;59.512;18.050;2023-01-04T01:01:22;5.57;;;5.17;;
22080;SDS011;11207;59.512;18.050;2023-01-04T01:03:54;6.30;;;5.80;;
22080;SDS011;11207;59.512;18.050;2023-01-04T01:06:21;6.83;;;5.40;;
22080;SDS011;11207;59.512;18.050;2023-01-04T01:08:49;5.97;;;5.47;;
22080;SDS011;11207;59.512;18.050;2023-01-04T01:11:17;6.17;;;5.67;;
22080;SDS011;11207;59.512;18.050;2023-01-04T01:13:43;6.37;;;5.77;;
22080;SDS011;11207;59.512;18.050;2023-01-04T01:16:10;6.03;;;5.33;;
22080;SDS011;11207;59.512;18.050;2023-01-04T01:18:38;6.33;;;5.73;;
22080;SDS011;11207;59.512;18.050;2023-01-04T01:21:06;7.90;;;7.07;;
22080;SDS011;11207;59.512;18.050;2023-01-04T01:23:35;6.63;;;6.00;;
22080;SDS011;11207;59.512;18.050;2023-01-04T01:26:01;6.63;;;6.10;;
22080;SDS011;11207;59.512;18.050;2023-01-04T01:28:32;6.60;;;6.00;;
22080;SDS011;11207;59.512;18.050;2023-01-04T01:30:58;6.13;;;5.63;;
22080;SDS011;11207;59.512;18.050;2023-01-04T01:33:28;6.37;;;5.77;;
22080;SDS011;11207;59.512;18.050;2023-01-04T01:35:54;6.63;;;6.03;;
22080;SDS011;11207;59.512;18.050;2023-01-04T01:38:23;6.37;;;5.77;;
22080;SDS011;11207;59.512;18.050;2023-01-04T01:40:49;5.97;;;5.50;;
22080;SDS011;11207;59.512;18.050;2023-01-04T01:43:19;6.87;;;6.27;;
22080;SDS011;11207;59.512;18.050;2023-01-04T01:45:46;8.20;;;7.10;;
22080;SDS011;11207;59.512;18.050;2023-01-04T01:48:17;7.90;;;6.60;;
22080;SDS011;11207;59.512;18.050;2023-01-04T01:50:54;7.30;;;6.70;;
22080;SDS011;11207;59.512;18.050;2023-01-04T01:53:23;6.87;;;6.13;;
22080;SDS011;11207;59.512;18.050;2023-01-04T01:55:50;7.33;;;6.60;;
22080;SDS011;11207;59.512;18.050;2023-01-04T01:58:27;8.23;;;6.37;;
22080;SDS011;11207;59.512;18.050;2023-01-04T02:01:06;6.23;;;5.73;;
22080;SDS011;11207;59.512;18.050;2023-01-04T02:03:36;6.40;;;5.77;;
22080;SDS011;11207;59.512;18.050;2023-01-04T02:06:05;7.13;;;6.53;;
22080;SDS011;11207;59.512;18.050;2023-01-04T02:08:41;6.83;;;6.23;;
22080;SDS011;11207;59.512;18.050;2023-01-04T02:11:08;6.10;;;5.50;;
22080;SDS011;11207;59.512;18.050;2023-01-04T02:13:34;5.80;;;5.37;;
22080;SDS011;11207;59.512;18.050;2023-01-04T02:22:03;6.43;;;5.73;;
22080;SDS011;11207;59.512;18.050;2023-01-04T02:25:02;6.70;;;6.13;;
22080;SDS011;11207;59.512;18.050;2023-01-04T02:35:50;9.30;;;5.90;;
22080;SDS011;11207;59.512;18.050;2023-01-04T02:38:48;6.20;;;5.67;;
22080;SDS011;11207;59.512;18.050;2023-01-04T02:44:07;6.03;;;5.53;;
22080;SDS011;11207;59.512;18.050;2023-01-04T02:50:34;6.17;;;5.70;;
22080;SDS011;11207;59.512;18.050;2023-01-04T02:53:17;6.87;;;5.53;;
22080;SDS011;11207;59.512;18.050;2023-01-04T03:05:03;6.23;;;5.73;;
22080;SDS011;11207;59.512;18.050;2023-01-04T03:10:54;5.97;;;5.23;;
22080;SDS011;11207;59.512;18.050;2023-01-04T03:13:39;6.23;;;5.53;;
22080;SDS011;11207;59.512;18.050;2023-01-04T03:16:12;5.17;;;4.83;;
22080;SDS011;11207;59.512;18.050;2023-01-04T03:18:43;5.90;;;5.47;;
22080;SDS011;11207;59.512;18.050;2023-01-04T03:21:15;5.53;;;5.13;;
22080;SDS011;11207;59.512;18.050;2023-01-04T03:23:45;5.77;;;5.27;;
22080;SDS011;11207;59.512;18.050;2023-01-04T03:26:33;6.60;;;6.00;;
22080;SDS011;11207;59.512;18.050;2023-01-04T03:29:29;5.37;;;4.97;;
22080;SDS011;11207;59.512;18.050;2023-01-04T03:32:21;5.60;;;5.17;;
22080;SDS011;11207;59.512;18.050;2023-01-04T03:35:13;5.37;;;4.97;;
22080;SDS011;11207;59.512;18.050;2023-01-04T03:38:03;5.60;;;5.20;;
22080;SDS011;11207;59.512;18.050;2023-01-04T03:41:05;5.57;;;5.07;;
22080;SDS011;11207;59.512;18.050;2023-01-04T03:44:31;6.47;;;5.87;;
22080;SDS011;11207;59.512;18.050;2023-01-04T03:47:26;6.27;;;4.70;;
22080;SDS011;11207;59.512;18.050;2023-01-04T03:52:48;5.23;;;4.87;;
22080;SDS011;11207;59.512;18.050;2023-01-04T03:55:15;5.67;;;5.27;;
22080;SDS011;11207;59.512;18.050;2023-01-04T03:57:43;6.33;;;5.83;;
22080;SDS011;11207;59.512;18.050;2023-01-04T04:00:14;5.40;;;5.00;;
22080;SDS011;11207;59.512;18.050;2023-01-04T04:02:43;5.40;;;5.00;;
22080;SDS011;11207;59.512;18.050;2023-01-04T04:05:17;5.63;;;5.10;;
22080;SDS011;11207;59.512;18.050;2023-01-04T04:08:04;6.20;;;5.70;;
22080;SDS011;11207;59.512;18.050;2023-01-04T04:10:48;5.77;;;5.10;;
22080;SDS011;11207;59.512;18.050;2023-01-04T04:13:14;6.20;;;5.40;;
22080;SDS011;11207;59.512;18.050;2023-01-04T04:15:40;5.77;;;5.40;;
22080;SDS011;11207;59.512;18.050;2023-01-04T04:18:06;5.13;;;4.60;;
22080;SDS011;11207;59.512;18.050;2023-01-04T04:20:32;5.33;;;5.00;;
22080;SDS011;11207;59.512;18.050;2023-01-04T04:22:57;5.67;;;5.27;;
22080;SDS011;11207;59.512;18.050;2023-01-04T04:25:23;6.00;;;5.60;;
22080;SDS011;11207;59.512;18.050;2023-01-04T04:27:49;5.70;;;5.30;;
22080;SDS011;11207;59.512;18.050;2023-01-04T04:30:15;5.87;;;5.40;;
22080;SDS011;11207;59.512;18.050;2023-01-04T04:32:40;5.30;;;4.90;;
22080;SDS011;11207;59.512;18.050;2023-01-04T04:35:06;5.13;;;4.83;;
22080;SDS011;11207;59.512;18.050;2023-01-04T04:37:32;5.60;;;5.20;;
22080;SDS011;11207;59.512;18.050;2023-01-04T04:39:59;6.80;;;5.40;;
22080;SDS011;11207;59.512;18.050;2023-01-04T04:42:25;5.40;;;5.00;;
22080;SDS011;11207;59.512;18.050;2023-01-04T04:44:50;5.77;;;5.13;;
22080;SDS011;11207;59.512;18.050;2023-01-04T04:47:16;6.87;;;5.60;;
22080;SDS011;11207;59.512;18.050;2023-01-04T04:49:41;6.73;;;6.00;;
22080;SDS011;11207;59.512;18.050;2023-01-04T04:52:07;5.53;;;5.13;;
22080;SDS011;11207;59.512;18.050;2023-01-04T04:54:33;6.70;;;6.10;;
22080;SDS011;11207;59.512;18.050;2023-01-04T04:56:58;7.53;;;6.07;;
22080;SDS011;11207;59.512;18.050;2023-01-04T04:59:24;6.30;;;5.80;;
22080;SDS011;11207;59.512;18.050;2023-01-04T05:01:50;6.90;;;6.13;;
22080;SDS011;11207;59.512;18.050;2023-01-04T05:04:15;7.40;;;6.63;;
22080;SDS011;11207;59.512;18.050;2023-01-04T05:06:44;6.10;;;5.57;;
22080;SDS011;11207;59.512;18.050;2023-01-04T05:09:11;7.63;;;6.10;;
22080;SDS011;11207;59.512;18.050;2023-01-04T05:11:37;8.83;;;5.90;;
22080;SDS011;11207;59.512;18.050;2023-01-04T05:14:21;6.13;;;5.50;;
22080;SDS011;11207;59.512;18.050;2023-01-04T05:16:47;6.57;;;5.97;;
22080;SDS011;11207;59.512;18.050;2023-01-04T05:19:13;6.47;;;5.73;;
22080;SDS011;11207;59.512;18.050;2023-01-04T05:21:38;6.80;;;6.13;;
22080;SDS011;11207;59.512;18.050;2023-01-04T05:24:05;6.27;;;5.77;;
22080;SDS011;11207;59.512;18.050;2023-01-04T05:26:31;6.50;;;5.80;;
22080;SDS011;11207;59.512;18.050;2023-01-04T05:28:57;5.83;;;5.33;;
22080;SDS011;11207;59.512;18.050;2023-01-04T05:31:23;6.20;;;5.57;;
22080;SDS011;11207;59.512;18.050;2023-01-04T05:33:49;6.07;;;5.20;;
22080;SDS011;11207;59.512;18.050;2023-01-04T05:36:15;6.13;;;5.63;;
22080;SDS011;11207;59.512;18.050;2023-01-04T05:38:41;5.67;;;5.17;;
22080;SDS011;11207;59.512;18.050;2023-01-04T05:41:07;5.67;;;5.17;;
22080;SDS011;11207;59.512;18.050;2023-01-04T05:43:52;5.43;;;5.00;;
22080;SDS011;11207;59.512;18.050;2023-01-04T05:46:18;6.27;;;5.77;;
22080;SDS011;11207;59.512;18.050;2023-01-04T05:48:43;5.40;;;5.00;;
22080;SDS011;11207;59.512;18.050;2023-01-04T05:51:09;7.33;;;5.07;;
22080;SDS011;11207;59.512;18.050;2023-01-04T05:53:35;5.33;;;4.83;;
22080;SDS011;11207;59.512;18.050;2023-01-04T05:56:00;7.90;;;5.50;;
22080;SDS011;11207;59.512;18.050;2023-01-04T05:58:26;5.20;;;4.80;;
22080;SDS011;11207;59.512;18.050;2023-01-04T06:00:52;5.27;;;4.83;;
22080;SDS011;11207;59.512;18.050;2023-01-04T06:03:18;5.10;;;4.63;;
22080;SDS011;11207;59.512;18.050;2023-01-04T06:05:47;4.83;;;4.53;;
22080;SDS011;11207;59.512;18.050;2023-01-04T06:08:14;5.27;;;4.87;;
22080;SDS011;11207;59.512;18.050;2023-01-04T06:10:39;6.90;;;4.83;;
22080;SDS011;11207;59.512;18.050;2023-01-04T06:13:05;5.30;;;4.90;;
22080;SDS011;11207;59.512;18.050;2023-01-04T06:15:31;5.90;;;5.17;;
22080;SDS011;11207;59.512;18.050;2023-01-04T06:17:56;4.97;;;4.67;;
22080;SDS011;11207;59.512;18.050;2023-01-04T06:20:22;5.83;;;5.23;;
22080;SDS011;11207;59.512;18.050;2023-01-04T06:22:47;5.27;;;4.87;;
22080;SDS011;11207;59.512;18.050;2023-01-04T06:25:13;5.40;;;5.00;;
22080;SDS011;11207;59.512;18.050;2023-01-04T06:27:39;6.80;;;6.20;;
22080;SDS011;11207;59.512;18.050;2023-01-04T06:30:05;5.87;;;5.30;;
22080;SDS011;11207;59.512;18.050;2023-01-04T06:32:31;5.90;;;5.40;;
22080;SDS011;11207;59.512;18.050;2023-01-04T06:34:57;5.87;;;5.37;;
22080;SDS011;11207;59.512;18.050;2023-01-04T06:37:22;5.90;;;5.40;;
22080;SDS011;11207;59.512;18.050;2023-01-04T06:39:48;7.03;;;5.77;;
22080;SDS011;11207;59.512;18.050;2023-01-04T06:42:14;5.97;;;5.40;;
22080;SDS011;11207;59.512;18.050;2023-01-04T06:44:58;5.73;;;5.33;;
22080;SDS011;11207;59.512;18.050;2023-01-04T06:47:23;5.87;;;5.37;;
22080;SDS011;11207;59.512;18.050;2023-01-04T06:49:49;5.87;;;5.30;;
22080;SDS011;11207;59.512;18.050;2023-01-04T06:52:15;7.67;;;6.30;;
22080;SDS011;11207;59.512;18.050;2023-01-04T06:54:40;6.30;;;5.80;;
22080;SDS011;11207;59.512;18.050;2023-01-04T06:57:06;6.83;;;5.67;;
22080;SDS011;11207;59.512;18.050;2023-01-04T06:59:31;6.63;;;5.97;;
22080;SDS011;11207;59.512;18.050;2023-01-04T07:01:57;6.90;;;6.20;;
22080;SDS011;11207;59.512;18.050;2023-01-04T07:04:23;9.40;;;8.03;;
22080;SDS011;11207;59.512;18.050;2023-01-04T07:06:48;8.73;;;7.27;;
22080;SDS011;11207;59.512;18.050;2023-01-04T07:09:14;6.87;;;6.17;;
22080;SDS011;11207;59.512;18.050;2023-01-04T07:11:40;7.93;;;6.17;;
22080;SDS011;11207;59.512;18.050;2023-01-04T07:14:05;6.23;;;5.63;;
22080;SDS011;11207;59.512;18.050;2023-01-04T07:16:31;6.47;;;5.97;;
22080;SDS011;11207;59.512;18.050;2023-01-04T07:18:56;7.03;;;6.33;;
22080;SDS011;11207;59.512;18.050;2023-01-04T07:21:22;8.40;;;6.27;;
22080;SDS011;11207;59.512;18.050;2023-01-04T07:23:49;7.77;;;6.00;;
22080;SDS011;11207;59.512;18.050;2023-01-04T07:26:15;6.50;;;5.70;;
22080;SDS011;11207;59.512;18.050;2023-01-04T07:28:40;6.47;;;5.77;;
22080;SDS011;11207;59.512;18.050;2023-01-04T07:31:25;7.93;;;6.83;;
22080;SDS011;11207;59.512;18.050;2023-01-04T07:33:50;8.87;;;7.10;;
22080;SDS011;11207;59.512;18.050;2023-01-04T07:36:16;8.63;;;6.60;;
22080;SDS011;11207;59.512;18.050;2023-01-04T07:38:42;10.93;;;7.67;;
22080;SDS011;11207;59.512;18.050;2023-01-04T07:41:07;9.40;;;6.83;;
22080;SDS011;11207;59.512;18.050;2023-01-04T07:43:33;9.00;;;7.57;;
22080;SDS011;11207;59.512;18.050;2023-01-04T07:45:59;11.33;;;8.33;;
22080;SDS011;11207;59.512;18.050;2023-01-04T07:48:27;9.50;;;7.43;;
22080;SDS011;11207;59.512;18.050;2023-01-04T07:50:53;10.43;;;8.13;;
22080;SDS011;11207;59.512;18.050;2023-01-04T07:53:22;9.67;;;7.00;;
22080;SDS011;11207;59.512;18.050;2023-01-04T07:55:47;8.03;;;6.80;;
22080;SDS011;11207;59.512;18.050;2023-01-04T07:58:18;8.93;;;7.17;;
22080;SDS011;11207;59.512;18.050;2023-01-04T08:00:44;9.70;;;6.90;;
22080;SDS011;11207;59.512;18.050;2023-01-04T08:03:09;10.83;;;7.57;;
22080;SDS011;11207;59.512;18.050;2023-01-04T08:05:35;9.97;;;6.80;;
22080;SDS011;11207;59.512;18.050;2023-01-04T08:08:00;8.97;;;7.50;;
22080;SDS011;11207;59.512;18.050;2023-01-04T08:10:29;7.57;;;6.73;;
22080;SDS011;11207;59.512;18.050;2023-01-04T08:12:56;7.33;;;6.63;;
22080;SDS011;11207;59.512;18.050;2023-01-04T08:15:23;10.87;;;7.57;;
22080;SDS011;11207;59.512;18.050;2023-01-04T08:17:50;12.77;;;8.10;;
22080;SDS011;11207;59.512;18.050;2023-01-04T08:20:16;9.97;;;7.17;;
22080;SDS011;11207;59.512;18.050;2023-01-04T08:22:42;9.23;;;6.90;;
22080;SDS011;11207;59.512;18.050;2023-01-04T08:25:07;7.40;;;6.70;;
22080;SDS011;11207;59.512;18.050;2023-01-04T08:27:33;16.00;;;11.07;;
22080;SDS011;11207;59.512;18.050;2023-01-04T08:29:59;21.03;;;13.57;;
22080;SDS011;11207;59.512;18.050;2023-01-04T08:32:25;16.67;;;11.37;;
22080;SDS011;11207;59.512;18.050;2023-01-04T08:34:51;15.60;;;10.80;;
22080;SDS011;11207;59.512;18.050;2023-01-04T08:37:18;21.03;;;12.53;;
22080;SDS011;11207;59.512;18.050;2023-01-04T08:39:44;16.07;;;10.30;;
22080;SDS011;11207;59.512;18.050;2023-01-04T08:42:09;16.57;;;8.87;;
22080;SDS011;11207;59.512;18.050;2023-01-04T08:44:35;9.70;;;7.63;;
22080;SDS011;11207;59.512;18.050;2023-01-04T08:47:04;13.00;;;8.90;;
22080;SDS011;11207;59.512;18.050;2023-01-04T08:49:30;10.13;;;7.87;;
22080;SDS011;11207;59.512;18.050;2023-01-04T08:51:55;9.47;;;7.27;;
22080;SDS011;11207;59.512;18.050;2023-01-04T08:54:21;10.53;;;7.77;;
22080;SDS011;11207;59.512;18.050;2023-01-04T08:56:49;10.13;;;7.70;;
22080;SDS011;11207;59.512;18.050;2023-01-04T08:59:15;12.13;;;7.83;;
22080;SDS011;11207;59.512;18.050;2023-01-04T09:01:40;34.73;;;13.67;;
22080;SDS011;11207;59.512;18.050;2023-01-04T09:04:06;28.47;;;13.40;;
22080;SDS011;11207;59.512;18.050;2023-01-04T09:06:32;14.27;;;8.57;;
22080;SDS011;11207;59.512;18.050;2023-01-04T09:08:58;11.93;;;8.13;;
22080;SDS011;11207;59.512;18.050;2023-01-04T09:11:24;10.93;;;7.57;;
22080;SDS011;11207;59.512;18.050;2023-01-04T09:13:57;11.53;;;7.83;;
22080;SDS011;11207;59.512;18.050;2023-01-04T09:16:24;7.70;;;6.90;;
22080;SDS011;11207;59.512;18.050;2023-01-04T09:18:50;10.60;;;7.03;;
22080;SDS011;11207;59.512;18.050;2023-01-04T09:21:18;8.70;;;7.40;;
22080;SDS011;11207;59.512;18.050;2023-01-04T09:23:45;12.63;;;8.67;;
22080;SDS011;11207;59.512;18.050;2023-01-04T09:26:15;13.87;;;9.60;;
22080;SDS011;11207;59.512;18.050;2023-01-04T09:28:45;19.83;;;12.90;;
22080;SDS011;11207;59.512;18.050;2023-01-04T09:31:12;14.00;;;10.53;;
22080;SDS011;11207;59.512;18.050;2023-01-04T09:33:39;14.87;;;9.57;;
22080;SDS011;11207;59.512;18.050;2023-01-04T09:36:06;12.83;;;9.67;;
22080;SDS011;11207;59.512;18.050;2023-01-04T09:38:32;15.40;;;9.90;;
22080;SDS011;11207;59.512;18.050;2023-01-04T09:46:58;12.67;;;9.27;;
22080;SDS011;11207;59.512;18.050;2023-01-04T09:49:34;14.00;;;9.63;;
22080;SDS011;11207;59.512;18.050;2023-01-04T09:52:12;9.77;;;7.90;;
22080;SDS011;11207;59.512;18.050;2023-01-04T09:54:44;9.77;;;7.60;;
22080;SDS011;11207;59.512;18.050;2023-01-04T09:57:17;8.53;;;7.57;;
22080;SDS011;11207;59.512;18.050;2023-01-04T09:59:49;10.53;;;7.83;;
22080;SDS011;11207;59.512;18.050;2023-01-04T10:02:55;9.63;;;7.63;;
22080;SDS011;11207;59.512;18.050;2023-01-04T10:05:27;8.80;;;7.40;;
22080;SDS011;11207;59.512;18.050;2023-01-04T10:07:55;8.63;;;7.20;;
22080;SDS011;11207;59.512;18.050;2023-01-04T10:10:27;8.87;;;6.83;;
22080;SDS011;11207;59.512;18.050;2023-01-04T10:13:04;10.77;;;7.20;;
22080;SDS011;11207;59.512;18.050;2023-01-04T10:15:43;10.00;;;7.10;;
22080;SDS011;11207;59.512;18.050;2023-01-04T10:18:34;12.13;;;6.87;;
22080;SDS011;11207;59.512;18.050;2023-01-04T10:26:33;8.80;;;6.80;;
22080;SDS011;11207;59.512;18.050;2023-01-04T10:29:31;7.87;;;7.00;;
22080;SDS011;11207;59.512;18.050;2023-01-04T10:32:09;8.97;;;6.70;;
22080;SDS011;11207;59.512;18.050;2023-01-04T10:34:48;6.63;;;5.97;;
22080;SDS011;11207;59.512;18.050;2023-01-04T10:37:18;6.30;;;5.77;;
22080;SDS011;11207;59.512;18.050;2023-01-04T10:39:51;6.27;;;5.63;;
22080;SDS011;11207;59.512;18.050;2023-01-04T11:01:45;8.00;;;5.53;;
22080;SDS011;11207;59.512;18.050;2023-01-04T11:04:28;12.63;;;6.53;;
22080;SDS011;11207;59.512;18.050;2023-01-04T11:07:17;9.83;;;5.73;;
22080;SDS011;11207;59.512;18.050;2023-01-04T11:09:48;7.93;;;6.00;;
22080;SDS011;11207;59.512;18.050;2023-01-04T11:12:30;14.57;;;7.13;;
22080;SDS011;11207;59.512;18.050;2023-01-04T11:14:56;13.30;;;6.90;;
22080;SDS011;11207;59.512;18.050;2023-01-04T11:17:22;8.97;;;6.13;;
22080;SDS011;11207;59.512;18.050;2023-01-04T11:19:49;5.73;;;5.20;;
22080;SDS011;11207;59.512;18.050;2023-01-04T11:22:23;7.03;;;5.83;;
22080;SDS011;11207;59.512;18.050;2023-01-04T11:25:06;6.53;;;5.50;;
22080;SDS011;11207;59.512;18.050;2023-01-04T11:27:39;8.40;;;5.23;;
22080;SDS011;11207;59.512;18.050;2023-01-04T11:30:17;7.40;;;5.57;;
22080;SDS011;11207;59.512;18.050;2023-01-04T11:32:57;7.27;;;5.33;;
22080;SDS011;11207;59.512;18.050;2023-01-04T11:35:48;7.20;;;6.23;;
22080;SDS011;11207;59.512;18.050;2023-01-04T11:38:19;5.87;;;5.27;;
22080;SDS011;11207;59.512;18.050;2023-01-04T11:41:03;6.60;;;5.27;;
22080;SDS011;11207;59.512;18.050;2023-01-04T11:43:36;6.47;;;5.70;;
22080;SDS011;11207;59.512;18.050;2023-01-04T11:46:04;5.90;;;5.30;;
22080;SDS011;11207;59.512;18.050;2023-01-04T11:48:44;5.47;;;4.93;;
22080;SDS011;11207;59.512;18.050;2023-01-04T11:51:16;5.80;;;5.20;;
22080;SDS011;11207;59.512;18.050;2023-01-04T11:56:38;5.70;;;5.07;;
22080;SDS011;11207;59.512;18.050;2023-01-04T11:59:20;6.10;;;5.07;;
22080;SDS011;11207;59.512;18.050;2023-01-04T12:01:47;5.20;;;4.80;;
22080;SDS011;11207;59.512;18.050;2023-01-04T12:04:17;5.30;;;4.90;;
22080;SDS011;11207;59.512;18.050;2023-01-04T12:09:27;5.93;;;5.43;;
22080;SDS011;11207;59.512;18.050;2023-01-04T12:11:55;5.57;;;4.77;;
22080;SDS011;11207;59.512;18.050;2023-01-04T12:14:23;4.90;;;4.47;;
22080;SDS011;11207;59.512;18.050;2023-01-04T12:16:53;5.30;;;4.77;;
22080;SDS011;11207;59.512;18.050;2023-01-04T12:19:30;5.53;;;4.93;;
22080;SDS011;11207;59.512;18.050;2023-01-04T12:21:57;8.03;;;4.97;;
22080;SDS011;11207;59.512;18.050;2023-01-04T12:24:29;4.97;;;4.57;;
22080;SDS011;11207;59.512;18.050;2023-01-04T12:27:10;5.37;;;4.97;;
22080;SDS011;11207;59.512;18.050;2023-01-04T12:29:52;4.60;;;4.20;;
22080;SDS011;11207;59.512;18.050;2023-01-04T12:34:50;4.73;;;4.30;;
22080;SDS011;11207;59.512;18.050;2023-01-04T12:45:39;5.10;;;4.60;;
22080;SDS011;11207;59.512;18.050;2023-01-04T12:51:24;5.87;;;4.70;;
22080;SDS011;11207;59.512;18.050;2023-01-04T12:59:51;5.20;;;4.50;;
22080;SDS011;11207;59.512;18.050;2023-01-04T13:02:23;5.33;;;4.27;;
22080;SDS011;11207;59.512;18.050;2023-01-04T13:04:59;4.87;;;4.47;;
22080;SDS011;11207;59.512;18.050;2023-01-04T13:07:58;5.47;;;4.97;;
22080;SDS011;11207;59.512;18.050;2023-01-04T13:10:34;4.87;;;4.47;;
22080;SDS011;11207;59.512;18.050;2023-01-04T13:18:58;4.90;;;4.50;;
22080;SDS011;11207;59.512;18.050;2023-01-04T13:21:35;5.03;;;4.53;;
22080;SDS011;11207;59.512;18.050;2023-01-04T13:24:27;4.33;;;3.97;;
22080;SDS011;11207;59.512;18.050;2023-01-04T13:26:56;5.17;;;4.03;;
22080;SDS011;11207;59.512;18.050;2023-01-04T13:29:34;4.90;;;4.50;;
22080;SDS011;11207;59.512;18.050;2023-01-04T13:37:15;4.60;;;4.10;;
22080;SDS011;11207;59.512;18.050;2023-01-04T13:39:50;4.63;;;4.23;;
22080;SDS011;11207;59.512;18.050;2023-01-04T13:42:28;4.50;;;4.20;;
22080;SDS011;11207;59.512;18.050;2023-01-04T13:47:27;5.03;;;4.60;;
22080;SDS011;11207;59.512;18.050;2023-01-04T13:49:54;4.93;;;4.53;;
22080;SDS011;11207;59.512;18.050;2023-01-04T13:52:23;4.60;;;4.20;;
22080;SDS011;11207;59.512;18.050;2023-01-04T13:57:50;4.50;;;4.20;;
22080;SDS011;11207;59.512;18.050;2023-01-04T14:00:20;4.50;;;4.20;;
22080;SDS011;11207;59.512;18.050;2023-01-04T14:02:48;5.13;;;4.83;;
22080;SDS011;11207;59.512;18.050;2023-01-04T14:05:31;7.40;;;4.70;;
22080;SDS011;11207;59.512;18.050;2023-01-04T14:07:56;4.83;;;4.40;;
22080;SDS011;11207;59.512;18.050;2023-01-04T14:10:22;5.93;;;4.47;;
22080;SDS011;11207;59.512;18.050;2023-01-04T14:12:48;4.90;;;4.50;;
22080;SDS011;11207;59.512;18.050;2023-01-04T14:15:19;5.57;;;4.67;;
22080;SDS011;11207;59.512;18.050;2023-01-04T14:17:51;4.83;;;4.43;;
22080;SDS011;11207;59.512;18.050;2023-01-04T14:44:15;6.20;;;5.10;;
22080;SDS011;11207;59.512;18.050;2023-01-04T14:46:46;5.70;;;5.20;;
22080;SDS011;11207;59.512;18.050;2023-01-04T14:49:13;5.73;;;5.03;;
22080;SDS011;11207;59.512;18.050;2023-01-04T14:51:44;5.57;;;5.07;;
22080;SDS011;11207;59.512;18.050;2023-01-04T14:54:13;6.00;;;4.90;;
22080;SDS011;11207;59.512;18.050;2023-01-04T14:56:39;5.70;;;5.30;;
22080;SDS011;11207;59.512;18.050;2023-01-04T14:59:05;5.33;;;4.67;;
22080;SDS011;11207;59.512;18.050;2023-01-04T15:01:32;5.97;;;5.00;;
22080;SDS011;11207;59.512;18.050;2023-01-04T15:03:58;5.37;;;4.77;;
22080;SDS011;11207;59.512;18.050;2023-01-04T15:06:24;7.73;;;5.50;;
22080;SDS011;11207;59.512;18.050;2023-01-04T15:08:50;5.87;;;5.37;;
22080;SDS011;11207;59.512;18.050;2023-01-04T15:11:16;4.63;;;4.27;;
22080;SDS011;11207;59.512;18.050;2023-01-04T15:13:42;5.27;;;4.67;;
22080;SDS011;11207;59.512;18.050;2023-01-04T15:16:09;6.57;;;5.20;;
22080;SDS011;11207;59.512;18.050;2023-01-04T15:18:37;6.80;;;5.00;;
22080;SDS011;11207;59.512;18.050;2023-01-04T15:21:07;4.80;;;4.40;;
22080;SDS011;11207;59.512;18.050;2023-01-04T15:23:33;7.07;;;4.50;;
22080;SDS011;11207;59.512;18.050;2023-01-04T15:26:02;5.10;;;4.60;;
22080;SDS011;11207;59.512;18.050;2023-01-04T15:28:32;6.03;;;5.23;;
22080;SDS011;11207;59.512;18.050;2023-01-04T15:30:58;5.20;;;4.70;;
22080;SDS011;11207;59.512;18.050;2023-01-04T15:33:26;6.27;;;5.07;;
22080;SDS011;11207;59.512;18.050;2023-01-04T15:36:03;5.33;;;4.77;;
22080;SDS011;11207;59.512;18.050;2023-01-04T15:38:32;4.70;;;4.30;;
22080;SDS011;11207;59.512;18.050;2023-01-04T15:40:58;5.73;;;4.27;;
22080;SDS011;11207;59.512;18.050;2023-01-04T15:43:32;4.93;;;4.30;;
22080;SDS011;11207;59.512;18.050;2023-01-04T15:46:05;6.53;;;4.50;;
22080;SDS011;11207;59.512;18.050;2023-01-04T15:48:32;5.83;;;4.37;;
22080;SDS011;11207;59.512;18.050;2023-01-04T15:51:05;4.57;;;4.17;;
22080;SDS011;11207;59.512;18.050;2023-01-04T15:53:33;10.23;;;4.30;;
22080;SDS011;11207;59.512;18.050;2023-01-04T15:56:04;6.30;;;4.03;;
22080;SDS011;11207;59.512;18.050;2023-01-04T15:58:34;5.27;;;4.37;;
22080;SDS011;11207;59.512;18.050;2023-01-04T16:00:59;6.93;;;4.30;;
22080;SDS011;11207;59.512;18.050;2023-01-04T16:03:50;4.50;;;4.20;;
22080;SDS011;11207;59.512;18.050;2023-01-04T16:06:16;5.33;;;4.23;;
22080;SDS011;11207;59.512;18.050;2023-01-04T16:08:43;4.40;;;4.00;;
22080;SDS011;11207;59.512;18.050;2023-01-04T16:11:28;4.53;;;4.10;;
22080;SDS011;11207;59.512;18.050;2023-01-04T16:13:54;4.83;;;4.43;;
22080;SDS011;11207;59.512;18.050;2023-01-04T16:16:21;4.40;;;4.00;;
22080;SDS011;11207;59.512;18.050;2023-01-04T16:18:50;4.07;;;3.77;;
22080;SDS011;11207;59.512;18.050;2023-01-04T16:21:20;4.40;;;4.07;;
22080;SDS011;11207;59.512;18.050;2023-01-04T16:23:48;4.70;;;4.30;;
22080;SDS011;11207;59.512;18.050;2023-01-04T16:26:14;4.30;;;4.00;;
22080;SDS011;11207;59.512;18.050;2023-01-04T16:28:40;5.00;;;4.50;;
22080;SDS011;11207;59.512;18.050;2023-01-04T16:31:06;5.57;;;4.43;;
22080;SDS011;11207;59.512;18.050;2023-01-04T16:33:33;7.77;;;4.70;;
22080;SDS011;11207;59.512;18.050;2023-01-04T16:36:03;4.40;;;4.10;;
22080;SDS011;11207;59.512;18.050;2023-01-04T16:38:31;4.33;;;3.93;;
22080;SDS011;11207;59.512;18.050;2023-01-04T16:41:00;4.53;;;4.13;;
22080;SDS011;11207;59.512;18.050;2023-01-04T16:43:29;4.23;;;3.93;;
22080;SDS011;11207;59.512;18.050;2023-01-04T16:48:58;5.53;;;3.67;;
22080;SDS011;11207;59.512;18.050;2023-01-04T16:51:30;4.17;;;3.87;;
22080;SDS011;11207;59.512;18.050;2023-01-04T16:53:57;6.70;;;3.93;;
22080;SDS011;11207;59.512;18.050;2023-01-04T16:56:25;4.70;;;4.30;;
22080;SDS011;11207;59.512;18.050;2023-01-04T16:58:50;4.30;;;4.00;;
22080;SDS011;11207;59.512;18.050;2023-01-04T17:01:17;6.17;;;4.47;;
22080;SDS011;11207;59.512;18.050;2023-01-04T17:03:55;4.60;;;4.20;;
22080;SDS011;11207;59.512;18.050;2023-01-04T17:06:23;4.37;;;4.07;;